Wichita Mid Continent Airport
KICT : rendu visible

Aérodrome :











RETROUVEZ-NOUS SUR...

 
LOGIN :

Register | Disclaimer

   EN    FR    IT 

 















- Airport Elevation : 1333 ft
- IATA code : ICT


KICT - Wichita Mid Continent

CURRENT METAR :
  • 230253Z 15009KT 10SM FEW049 FEW060 SCT075 18/12 A2990 RMK AO2 SLP119 T01830122 50000

EXPIRED METARs :
  • 230153Z 16006KT 10SM FEW060 17/12 A2990 RMK AO2 SLP121 T01670122
  • 230053Z 16004KT 10SM FEW060 18/12 A2990 RMK AO2 SLP122 T01830122

TAF KICT
Valid from the 23 at 00:00 until the 24 at 00:00 UTC


222321Z 2300/2324 17007KT P6SM SCT050
FM230500 17007KT P6SM VCTS BKN080CB
FM230900 16007KT P6SM BKN080
FM231600 15012KT P6SM SCT150
KZKC FIR / North America





SOURCES & CREDITS :

   NOAA       Earth
Advisory